CCGS Louis S. St-Laurent — CGBN — position and weather

sailwx.info

Track history (hours):
 
Tides and Currents Weather Stations Pressure Air Temp Water Temp Dewpoint Dewpoint Depression Visibility Wind Speed Wind Dir Waves Ship Positions

Oceanographic research ship CCGS Louis S. St-Laurent (Canada)

Detailed information on ship capabilities available from ARCUS's ALIAS (Arctic Logistics Information and Support) project.

Last reported at 2019-Jan-24 05:00 UTC. Time now 2019-Jan-24 06:10 UTC.
Position N 48°06' W 060°48'.

Length 119.63 m; beam 24.38 m; draft 9.9 m.

MMSI: 316165000.

Wind from 130 at 12 knots

Barometer 1019.5 mb
Air temperature -3.2 ° C
Dewpoint -2.5 ° C

Date/timePositionNaut miles runAvg speedWind from/ knotsBaromVisibWave heightAir tempDewpointWater temp
2019-Jan-24 05:00N 48°06' W 060°48'1010.0 130 / 121019.5 -3.2-2.5
2019-Jan-24 04:00N 48°00' W 060°36'1010.0 140 / 141020.8 -2.5-1.8
2019-Jan-24 03:00N 47°54' W 060°24'1010.0 140 / 131021.9 -2.2-1.4
2019-Jan-24 02:00N 47°48' W 060°12'2311.7 170 / 161022.7 -3.5-2.8
2019-Jan-24 00:00N 47°36' W 059°42'1010.1 220 / 121024.9 -3.9-3.2
2019-Jan-23 23:00N 47°30' W 059°30'1212.2 250 / 131025.3 -3.5-2.7
2019-Jan-23 22:00N 47°30' W 059°12'4 2.0 270 / 181025.4 -2.9-2.2
2019-Jan-23 20:00N 47°30' W 059°06'1414.5 280 / 251023.9 -3.3-2.5
2019-Jan-23 19:00N 47°18' W 058°54'1212.2 280 / 201022.9 -3.2-2.4
2019-Jan-23 18:00N 47°18' W 058°36'1413.6 290 / 201022.0 -2.9-2.1
2019-Jan-23 17:00N 47°12' W 058°18'1010.1 280 / 201022.6 -2.4-1.6
2019-Jan-23 16:00N 47°06' W 058°06'1413.7 280 / 211022.3 -1.5-0.7
2019-Jan-23 15:00N 47°00' W 057°48'1010.2 300 / 181021.7 -0.9-0.1
2019-Jan-23 14:00N 46°54' W 057°36'8 8.2 310 / 181021.2 -0.6 0.2
2019-Jan-23 13:00N 46°54' W 057°24'1010.2 340 / 201019.5 -0.5 0.2
2019-Jan-23 12:00N 46°48' W 057°12'1413.7 320 / 221018.0 -1.0-0.2
2019-Jan-23 11:00N 46°42' W 056°54'4 4.1 320 / 271015.8 -1.7-1.0
2019-Jan-23 10:00N 46°42' W 056°48'1413.7 310 / 291014.1 -2.4-1.7
2019-Jan-23 09:00N 46°36' W 056°30'1010.2 310 / 311012.5 -2.6-1.9
2019-Jan-23 08:00N 46°30' W 056°18'8 8.3 310 / 281011.9 -3.4-2.8
2019-Jan-23 07:00N 46°30' W 056°06'1212.4 310 / 241011.0 -3.8-3.2
2019-Jan-23 06:00N 46°30' W 055°48'8 8.3 290 / 241010.1 -4.0-3.3
2019-Jan-23 05:00N 46°30' W 055°36'1010.2 290 / 211009.2 -4.0-3.3
2019-Jan-23 04:00N 46°36' W 055°24'1010.2 290 / 281007.3 -4.2-3.4
2019-Jan-23 03:00N 46°30' W 055°12'1212.4 310 / 191006.5 -4.1-3.3
2019-Jan-23 02:00N 46°30' W 054°54'8 8.3 270 / 201006.1 -3.1-2.4
2019-Jan-23 01:00N 46°30' W 054°42'8 8.3 250 / 251005.6 -2.5-1.7
2019-Jan-23 00:00N 46°30' W 054°30'1212.4 250 / 181005.9 -2.5-1.5
2019-Jan-22 23:00N 46°30' W 054°12'1212.4 270 / 251005.1 -2.6-1.7
2019-Jan-22 22:00N 46°30' W 053°54'1212.4 240 / 131005.3 0.2 1.2
2019-Jan-22 21:00N 46°30' W 053°36'1212.4 250 / 91004.2 0.1 1.2
2019-Jan-22 20:00N 46°30' W 053°18'1212.4 240 / 91004.5 -0.1 1.0
2019-Jan-22 19:00N 46°30' W 053°00'1312.7 250 / 131003.7 0.1 1.2
2019-Jan-22 18:00N 46°42' W 052°54'6 6.0 250 / 71003.4 1.1 2.2
2019-Jan-22 17:00N 46°48' W 052°54'6 6.0 020 / 31002.2 2.5 3.7
2019-Jan-22 16:00N 46°54' W 052°54'1312.7 330 / 131002.6 0.9 2.0
2019-Jan-22 15:00N 47°06' W 052°48'7 7.3 320 / 151001.7 0.4 1.5
2019-Jan-22 14:00N 47°12' W 052°42'6 6.0 310 / 171000.3 0.8 1.9
2019-Jan-22 13:00N 47°18' W 052°42'428.8 310 / 121000.2 1.7 2.8
2019-Jan-22 12:51N 47°21' W 052°39'910.4
2019-Jan-22 12:00N 47°30' W 052°36'7 7.2 280 / 16999.3 1.0 2.1
2019-Jan-22 11:00N 47°36' W 052°42'287.6 260 / 11999.2 1.8 2.9
2019-Jan-22 10:58N 47°34' W 052°41'0 0.5
2019-Jan-22 10:20N 47°34' W 052°42'2 5.4
2019-Jan-22 10:00N 47°36' W 052°42'2 2.4 250 / 11999.9 1.7 2.8
2019-Jan-22 09:14N 47°34' W 052°42'2 7.9
2019-Jan-22 09:00N 47°36' W 052°42'0 0.0 240 / 9999.7 3.2 4.4
2019-Jan-22 08:00N 47°36' W 052°42'211.2 220 / 6999.1 5.1 6.3
2019-Jan-22 07:50N 47°34' W 052°42'0 0.0
2019-Jan-22 07:20N 47°34' W 052°42'2 5.5
2019-Jan-22 07:00N 47°36' W 052°42'211.1 120 / 3998.6 6.1 7.4
2019-Jan-22 06:50N 47°34' W 052°42'0 0.0
2019-Jan-22 06:26N 47°34' W 052°42'2 4.3
2019-Jan-22 06:00N 47°36' W 052°42'211.2 110 / 4999.4 6.4 7.7
2019-Jan-22 05:50N 47°34' W 052°42'0 0.0
2019-Jan-22 05:26N 47°34' W 052°42'2 4.3
2019-Jan-22 05:00N 47°36' W 052°42'2 2.6 240 / 8999.2 6.4 7.7
2019-Jan-22 04:17N 47°34' W 052°42'2 6.5
2019-Jan-22 04:00N 47°36' W 052°42'2115.0 240 / 10999.5 6.6 7.8
2019-Jan-22 03:59N 47°34' W 052°42'2 1.9
2019-Jan-22 03:00N 47°36' W 052°42'227.9 190 / 9998.7 8.710.1
2019-Jan-22 02:56N 47°34' W 052°42'0 0.0
2019-Jan-22 02:05N 47°34' W 052°42'222.2
2019-Jan-22 02:00N 47°36' W 052°42'2 3.3 180 / 1999.0 8.610.0
2019-Jan-22 01:26N 47°34' W 052°42'2 4.3
2019-Jan-22 01:00N 47°36' W 052°42'2 4.0 190 / 2999.3 9.110.5
2019-Jan-22 00:32N 47°34' W 052°42'2 3.5
2019-Jan-22 00:00N 47°36' W 052°42'2 4.0 180 / 31000.7 8.810.1
2019-Jan-21 23:32N 47°34' W 052°42'0 0.0
2019-Jan-21 23:26N 47°34' W 052°42'2 4.3
2019-Jan-21 23:00N 47°36' W 052°42'2 4.9 120 / 11001.9 8.710.0
2019-Jan-21 22:35N 47°34' W 052°42'0 4.2
2019-Jan-21 22:30N 47°34' W 052°42'2 4.4
2019-Jan-21 22:00N 47°36' W 052°42'211.9 220 / 111002.4 9.510.8
2019-Jan-21 21:48N 47°34' W 052°42'2 2.9
2019-Jan-21 21:00N 47°36' W 052°42'215.9 220 / 171002.6 10.311.6
2019-Jan-21 20:51N 47°34' W 052°42'0 0.0
2019-Jan-21 20:18N 47°34' W 052°42'2 7.5
2019-Jan-21 20:00N 47°36' W 052°42'215.9 220 / 141002.7 9.510.8
2019-Jan-21 19:51N 47°34' W 052°42'2 2.7
2019-Jan-21 19:00N 47°36' W 052°42'2 4.2 210 / 121003.5 10.111.5
2019-Jan-21 18:27N 47°34' W 052°42'2 5.0
2019-Jan-21 18:00N 47°36' W 052°42'0 0.0 210 / 121004.4 11.412.8
2019-Jan-21 17:00N 47°36' W 052°42'0 0.0 210 / 131005.3 11.112.5
2019-Jan-21 16:00N 47°36' W 052°42'0 0.0 210 / 121006.6 10.612.0
2019-Jan-21 15:00N 47°36' W 052°42'2 7.8 210 / 151007.5 10.912.3
2019-Jan-21 14:42N 47°34' W 052°42'0 0.0
2019-Jan-21 14:06N 47°34' W 052°42'0 0.0
2019-Jan-21 13:51N 47°34' W 052°42'0 0.0
2019-Jan-21 13:24N 47°34' W 052°42'2 5.6
2019-Jan-21 13:00N 47°36' W 052°42'252.6 200 / 101009.2 6.8 8.1
2019-Jan-21 12:57N 47°34' W 052°42'2 2.4
2019-Jan-21 12:00N 47°36' W 052°42'2 3.1 210 / 151010.1 5.2 6.4
2019-Jan-21 11:15N 47°34' W 052°42'2 8.9
2019-Jan-21 11:00N 47°36' W 052°42'211.8 220 / 131011.5 3.8 5.0
2019-Jan-21 10:48N 47°34' W 052°42'0 0.0
2019-Jan-21 10:03N 47°34' W 052°42'240.6
2019-Jan-21 10:00N 47°36' W 052°42'0 0.0 210 / 111012.6 2.8 3.9
2019-Jan-21 09:00N 47°36' W 052°42'224.4 210 / 91015.1 1.8 2.9
2019-Jan-21 08:54N 47°34' W 052°42'0 0.0
2019-Jan-21 08:03N 47°34' W 052°42'240.6
2019-Jan-21 08:00N 47°36' W 052°42'224.5 210 / 41016.6 0.9 1.9
2019-Jan-21 07:54N 47°34' W 052°42'0 0.0
2019-Jan-21 07:18N 47°34' W 052°42'2 7.5
2019-Jan-21 07:00N 47°36' W 052°42'0 0.0 210 / 31018.7 0.4 1.4
2019-Jan-21 06:00N 47°36' W 052°42'0 0.0 190 / 41020.9 0.4 1.3
2019-Jan-21 05:00N 47°36' W 052°42'0 0.0 210 / 61022.0 0.2 1.1
2019-Jan-21 04:00N 47°36' W 052°42'0 0.0 210 / 51023.7 -0.3 0.5
2019-Jan-21 03:00N 47°36' W 052°42'0 0.0 180 / 21025.6 -0.6 0.2
2019-Jan-21 02:00N 47°36' W 052°42'0 0.0 180 / 41026.9 -1.3-0.5
2019-Jan-21 01:00N 47°36' W 052°42'0 0.0 210 / 31028.2 -2.2-1.5
2019-Jan-21 00:00N 47°36' W 052°42'2 4.6 210 / 11030.1 -3.1-2.5
2019-Jan-20 23:30N 47°34' W 052°42'2 4.5
2019-Jan-20 23:00N 47°36' W 052°42'211.8 050 / 11031.6 -4.1-3.5
2019-Jan-20 22:48N 47°34' W 052°42'2 2.8
2019-Jan-20 22:00N 47°36' W 052°42'0 0.0 060 / 31031.9 -5.0-4.4
2019-Jan-20 21:00N 47°36' W 052°42'224.5 200 / 11033.0 -5.3-4.8
2019-Jan-20 20:54N 47°34' W 052°42'0 0.0
2019-Jan-20 20:06N 47°34' W 052°42'221.7
2019-Jan-20 20:00N 47°36' W 052°42'0 0.0 050 / 31032.5 -6.6-6.1
2019-Jan-20 19:00N 47°36' W 052°42'2 7.8 040 / 61032.6 -7.4-6.9
2019-Jan-20 18:42N 47°34' W 052°42'2 3.2
2019-Jan-20 18:00N 47°36' W 052°42'2 3.9 070 / 41033.9 -7.0-6.6
2019-Jan-20 17:24N 47°34' W 052°42'2 5.6
2019-Jan-20 17:00N 47°36' W 052°42'252.2 070 / 31033.5 -7.0-6.5
2019-Jan-20 16:57N 47°34' W 052°42'0 0.0
2019-Jan-20 16:30N 47°34' W 052°42'2 4.5
2019-Jan-20 16:00N 47°36' W 052°42'2 4.6 010 / 41033.3 -7.4-7.0
2019-Jan-20 15:30N 47°34' W 052°42'0 0.0
2019-Jan-20 15:00N 47°34' W 052°42'2376.0
2019-Jan-20 15:00N 47°36' W 052°42'2 4.6 050 / 41033.9 -7.8-7.4
2019-Jan-20 14:30N 47°34' W 052°42'2 4.5
2019-Jan-20 14:00N 47°36' W 052°42'2 3.3 330 / 41033.3 -7.8-7.4
2019-Jan-20 13:18N 47°34' W 052°42'2 7.5
2019-Jan-20 13:00N 47°36' W 052°42'2124.0 350 / 61032.7 -8.6-8.1
2019-Jan-20 12:58N 47°34' W 052°42'1 0.6
2019-Jan-20 12:00N 47°34' W 052°42'2116.0
2019-Jan-20 12:00N 47°36' W 052°42'2 3.1 360 / 21031.9 -8.4-7.9
2019-Jan-20 11:24N 47°34' W 052°42'2 4.4
2019-Jan-20 11:00N 47°36' W 052°42'221.8 320 / 31031.3 -8.7-8.3
2019-Jan-20 10:54N 47°34' W 052°42'0 0.0
2019-Jan-20 10:30N 47°34' W 052°42'2 3.6
2019-Jan-20 10:00N 47°36' W 052°42'2 4.2 270 / 41029.3 -8.9-8.4
2019-Jan-20 09:33N 47°34' W 052°42'2 3.2
2019-Jan-20 09:00N 47°36' W 052°42'221.8 270 / 61028.9 -9.1-8.6
2019-Jan-20 08:54N 47°34' W 052°42'0 0.0
2019-Jan-20 08:00N 47°34' W 052°42'2120.2
2019-Jan-20 08:00N 47°36' W 052°42'0 0.0 280 / 71028.6 -8.9-8.4
2019-Jan-20 07:00N 47°36' W 052°42'0 0.0 280 / 91027.7 -8.8-8.4
2019-Jan-20 06:00N 47°36' W 052°42'0 0.0 260 / 71026.4 -8.5-8.0
2019-Jan-20 05:00N 47°36' W 052°42'0 0.0 260 / 61025.5 -8.4-7.9
2019-Jan-20 04:00N 47°36' W 052°42'0 0.0 260 / 61024.8 -8.2-7.7
2019-Jan-20 03:00N 47°36' W 052°42'0 0.0 280 / 71023.7 -7.8-7.2
2019-Jan-20 02:00N 47°36' W 052°42'2 2.0 280 / 61022.3 -6.9-6.3
2019-Jan-20 01:03N 47°34' W 052°42'227.9
2019-Jan-20 01:00N 47°36' W 052°42'0 0.0 270 / 71020.4 -6.0-5.4
2019-Jan-20 00:00N 47°36' W 052°42'0 0.0 270 / 61018.8 -4.4-3.7
2019-Jan-19 23:00N 47°36' W 052°42'0 0.0 280 / 71017.3 -3.1-2.4
2019-Jan-19 22:00N 47°36' W 052°42'0 0.0 280 / 71015.2 -1.6-0.8
2019-Jan-19 21:00N 47°36' W 052°42'2 2.5 270 / 111013.4 0.1 1.0
2019-Jan-19 20:15N 47°34' W 052°42'2 6.9
2019-Jan-19 20:00N 47°36' W 052°42'253.8 270 / 71011.5 1.1 2.1
2019-Jan-19 19:57N 47°34' W 052°42'2 1.9
2019-Jan-19 19:00N 47°36' W 052°42'0 0.0 260 / 71010.1 1.8 2.9
2019-Jan-19 18:00N 47°36' W 052°42'2 4.2 260 / 101009.0 1.8 2.9
2019-Jan-19 17:33N 47°34' W 052°42'0 0.0
2019-Jan-19 17:27N 47°34' W 052°42'2 3.9
2019-Jan-19 17:00N 47°36' W 052°42'253.3 1008.7 0.8 1.9
2019-Jan-19 16:57N 47°34' W 052°42'2 1.9
2019-Jan-19 16:00N 47°36' W 052°42'2 7.8 110 / 51009.8 0.5 1.5
2019-Jan-19 15:45N 47°34' W 052°42'0 0.0
2019-Jan-19 15:27N 47°34' W 052°42'2 3.9
2019-Jan-19 15:00N 47°36' W 052°42'253.8 110 / 51011.9 0.1 1.1
2019-Jan-19 14:57N 47°34' W 052°42'0 0.0
2019-Jan-19 14:15N 47°34' W 052°42'2 6.9
2019-Jan-19 14:00N 47°36' W 052°42'2 2.3 120 / 51013.3 -0.2 0.8
2019-Jan-19 13:12N 47°34' W 052°42'2 8.5
2019-Jan-19 13:00N 47°36' W 052°42'0 0.0 120 / 131014.9 -1.5-0.6
2019-Jan-19 12:00N 47°36' W 052°42'213.6 120 / 61015.9 -1.6-0.7
2019-Jan-19 11:51N 47°34' W 052°42'2 2.1
2019-Jan-19 11:00N 47°36' W 052°42'2 5.5 120 / 71018.0 -2.4-1.6
2019-Jan-19 10:39N 47°34' W 052°42'2 2.7
2019-Jan-19 10:00N 47°36' W 052°42'2 3.1 120 / 41019.9 -2.7-1.9
2019-Jan-19 09:24N 47°34' W 052°42'2 4.4
2019-Jan-19 09:00N 47°36' W 052°42'2 7.8 120 / 41021.3 -2.9-2.2
2019-Jan-19 08:45N 47°34' W 052°42'0 0.0
2019-Jan-19 08:21N 47°34' W 052°42'0 0.0
2019-Jan-19 08:00N 47°34' W 052°42'2118.1
2019-Jan-19 08:00N 47°36' W 052°42'2 3.8 120 / 31022.4 -2.5-1.9
2019-Jan-19 07:30N 47°34' W 052°42'2 3.6
2019-Jan-19 07:00N 47°36' W 052°42'210.0 170 / 11024.4 -2.6-2.1
2019-Jan-19 06:48N 47°34' W 052°42'0 0.0
2019-Jan-19 06:12N 47°34' W 052°42'2 8.5
2019-Jan-19 06:00N 47°36' W 052°42'2 5.5 160 / 11025.3 -2.9-2.4
2019-Jan-19 05:39N 47°34' W 052°42'0 0.0
2019-Jan-19 05:27N 47°34' W 052°42'0 0.0
2019-Jan-19 05:00N 47°34' W 052°42'2114.0
2019-Jan-19 05:00N 47°36' W 052°42'2 1.9 180 / 11025.9 -3.6-3.0
2019-Jan-19 04:00N 47°34' W 052°42'2116.0
2019-Jan-19 04:00N 47°36' W 052°42'2 3.8 170 / 11027.5 -3.8-3.2
2019-Jan-19 03:30N 47°34' W 052°42'0 0.0
2019-Jan-19 02:00N 47°34' W 052°42'2116.1
2019-Jan-19 02:00N 47°36' W 052°42'2 2.3 180 / 21029.1 -4.1-3.6
2019-Jan-19 01:12N 47°34' W 052°42'2 8.5
2019-Jan-19 01:00N 47°36' W 052°42'213.7 190 / 31029.9 -4.4-4.0
2019-Jan-19 00:51N 47°34' W 052°42'0 0.0
2019-Jan-19 00:27N 47°34' W 052°42'2 3.9
2019-Jan-19 00:00N 47°36' W 052°42'254.2 200 / 11030.1 -4.6-4.1
2019-Jan-18 23:57N 47°34' W 052°42'2 1.9
2019-Jan-18 23:00N 47°36' W 052°42'253.8 190 / 21030.2 -4.7-4.3
2019-Jan-18 22:57N 47°34' W 052°42'0 0.0
2019-Jan-18 22:27N 47°34' W 052°42'0 0.0
2019-Jan-18 22:00N 47°34' W 052°42'2116.0
2019-Jan-18 22:00N 47°36' W 052°42'2 2.7 1030.2 -4.9-4.4
2019-Jan-18 21:18N 47°34' W 052°42'0 0.0
2019-Jan-18 21:00N 47°34' W 052°42'2114.0
2019-Jan-18 21:00N 47°36' W 052°42'2 2.9 200 / 11030.3 -5.4-4.9
2019-Jan-18 20:21N 47°34' W 052°42'2 5.0
2019-Jan-18 20:00N 47°36' W 052°42'254.2 1030.0 -5.0-4.5
2019-Jan-18 19:57N 47°34' W 052°42'0 0.0
2019-Jan-18 19:27N 47°34' W 052°42'0 0.0
2019-Jan-18 19:00N 47°34' W 052°42'2114.0
2019-Jan-18 19:00N 47°36' W 052°42'2 2.9 240 / 41029.6 -5.1-4.7
2019-Jan-18 18:21N 47°34' W 052°42'2 5.0
2019-Jan-18 18:00N 47°36' W 052°42'254.2 260 / 91029.2 -5.9-5.5
2019-Jan-18 17:57N 47°34' W 052°42'0 0.0
2019-Jan-18 17:27N 47°34' W 052°42'0 0.0
2019-Jan-18 17:00N 47°34' W 052°42'2114.0
2019-Jan-18 17:00N 47°36' W 052°42'0 0.0 250 / 101029.4 -6.0-5.5
2019-Jan-18 16:00N 47°36' W 052°42'2 4.8 270 / 111029.6 -6.3-5.9
2019-Jan-18 15:36N 47°34' W 052°42'0 0.0
2019-Jan-18 15:00N 47°34' W 052°42'2113.7
2019-Jan-18 15:00N 47°36' W 052°42'2 3.8 260 / 91029.8 -7.1-6.7
2019-Jan-18 14:30N 47°34' W 052°42'2 3.6
2019-Jan-18 14:00N 47°36' W 052°42'253.8 290 / 71029.8 -7.6-7.2
2019-Jan-18 13:57N 47°34' W 052°42'2 1.9
2019-Jan-18 13:00N 47°36' W 052°42'0 0.0 280 / 61029.0 -8.3-8.0
2019-Jan-18 12:00N 47°36' W 052°42'213.7 270 / 81027.5 -8.9-8.6
2019-Jan-18 11:51N 47°34' W 052°42'2 2.1
2019-Jan-18 11:00N 47°36' W 052°42'0 0.0 270 / 71026.4 -9.3-9.0
2019-Jan-18 10:00N 47°36' W 052°42'0 0.0 280 / 81025.4 -9.2-8.9
2019-Jan-18 09:00N 47°36' W 052°42'2 7.8 270 / 81024.4 -9.1-8.8
2019-Jan-18 08:45N 47°34' W 052°42'0 0.0
2019-Jan-18 08:24N 47°34' W 052°42'2 4.4
2019-Jan-18 08:00N 47°36' W 052°42'2 3.4 280 / 81023.5 -8.8-8.4
2019-Jan-18 07:27N 47°34' W 052°42'2 3.9
2019-Jan-18 07:00N 47°36' W 052°42'0 0.0 260 / 91022.5 -8.5-8.1
2019-Jan-18 06:00N 47°36' W 052°42'0 0.0 260 / 111021.4 -8.1-7.7
2019-Jan-18 05:00N 47°36' W 052°42'0 0.0 270 / 111019.9 -7.6-7.3
2019-Jan-18 04:00N 47°36' W 052°42'0 0.0 260 / 111019.3 -7.4-7.0
2019-Jan-18 03:00N 47°36' W 052°42'0 0.0 270 / 111019.1 -7.1-6.7
2019-Jan-18 02:00N 47°36' W 052°42'0 0.0 270 / 101017.4 -6.3-5.8
2019-Jan-18 01:00N 47°36' W 052°42'0 0.0 270 / 81016.2 -5.2-4.6
2019-Jan-18 00:00N 47°36' W 052°42'0 0.0 260 / 81015.1 -4.7-4.2
2019-Jan-17 23:00N 47°36' W 052°42'0 0.0 260 / 121014.4 -4.3-3.7
2019-Jan-17 22:00N 47°36' W 052°42'0 0.0 260 / 131013.2 -3.7-3.1
2019-Jan-17 21:00N 47°36' W 052°42'0 0.0 250 / 131012.2 -2.7-2.1
2019-Jan-17 20:00N 47°36' W 052°42'0 0.0 250 / 111011.2 -1.1-0.4
2019-Jan-17 19:00N 47°36' W 052°42'2 2.9 240 / 101010.1 0.6 1.4
2019-Jan-17 18:21N 47°34' W 052°42'2 5.0
2019-Jan-17 18:00N 47°36' W 052°42'210.0 240 / 121008.6 1.4 2.3
2019-Jan-17 17:48N 47°34' W 052°42'2 2.3
2019-Jan-17 17:00N 47°36' W 052°42'2 7.4 180 / 61008.0 2.6 3.6
2019-Jan-17 16:45N 47°34' W 052°42'2 2.4
2019-Jan-17 16:00N 47°36' W 052°42'0 0.0 180 / 11008.8 2.3 3.4
2019-Jan-17 15:00N 47°36' W 052°42'0 0.0 170 / 11010.3 1.9 2.9
2019-Jan-17 14:00N 47°36' W 052°42'0 0.0 180 / 11011.6 1.5 2.5
2019-Jan-17 13:00N 47°36' W 052°42'0 0.0 190 / 21012.4 1.2 2.2
2019-Jan-17 12:00N 47°36' W 052°42'0 0.0 010 / 11012.8 0.5 1.4
2019-Jan-17 11:00N 47°36' W 052°42'0 0.0 120 / 41014.1 -0.6 0.3
2019-Jan-17 10:00N 47°36' W 052°42'0 0.0 1015.1 -0.5 0.4
2019-Jan-17 09:00N 47°36' W 052°42'0 0.0 180 / 11015.5 -1.0-0.1
2019-Jan-17 08:00N 47°36' W 052°42'0 0.0 140 / 11016.2 -1.2-0.4
2019-Jan-17 07:00N 47°36' W 052°42'0 0.0 1016.8 -1.4-0.5
2019-Jan-17 06:00N 47°36' W 052°42'0 0.0 1017.5 -1.7-0.9
2019-Jan-17 05:00N 47°36' W 052°42'2 8.0 200 / 61017.7 -2.1-1.3
2019-Jan-17 04:46N 47°34' W 052°42'2 2.4
2019-Jan-17 04:00N 47°36' W 052°42'0 0.0 190 / 21017.9 -1.8-1.0
2019-Jan-17 03:00N 47°36' W 052°42'0 0.0 1018.7 -2.0-1.2
2019-Jan-17 02:00N 47°36' W 052°42'0 0.0 190 / 11019.1 -2.5-1.7
2019-Jan-17 01:00N 47°36' W 052°42'0 0.0 190 / 21019.3 -3.1-2.3
2019-Jan-17 00:00N 47°36' W 052°42'0 0.0 1019.0 -2.9-2.2
2019-Jan-16 23:00N 47°36' W 052°42'0 0.0 190 / 11019.2 -3.5-2.7
2019-Jan-16 22:00N 47°36' W 052°42'0 0.0 1018.8 -3.5-2.8
2019-Jan-16 21:00N 47°36' W 052°42'0 0.0 210 / 21019.2 -4.0-3.3
2019-Jan-16 20:00N 47°36' W 052°42'0 0.0 250 / 61019.0 -4.2-3.5
2019-Jan-16 19:00N 47°36' W 052°42'0 0.0 250 / 41018.5 -4.2-3.4
2019-Jan-16 18:00N 47°36' W 052°42'0 0.0 190 / 31017.9 -4.1-3.3
2019-Jan-16 17:00N 47°36' W 052°42'0 0.0 270 / 41017.4 -4.6-3.9
2019-Jan-16 15:00N 47°36' W 052°42'0 0.0 270 / 61016.8 -4.5-3.8
2019-Jan-16 14:00N 47°36' W 052°42'0 0.0 270 / 71016.2 -4.3-3.5
2019-Jan-16 13:00N 47°36' W 052°42'262.2 290 / 91014.9 -4.1-3.3
2019-Jan-16 12:58N 47°34' W 052°42'2 1.9
2019-Jan-16 12:00N 47°36' W 052°42'0 0.0 280 / 61013.0 -4.1-3.3
2019-Jan-16 11:00N 47°36' W 052°42'0 0.0 280 / 81011.0 -3.7-2.9
2019-Jan-16 10:00N 47°36' W 052°42'2 2.9 280 / 81009.3 -3.2-2.4
2019-Jan-16 09:22N 47°34' W 052°42'2 5.0
2019-Jan-16 09:00N 47°36' W 052°42'0 0.0 280 / 91006.4 -2.8-1.9
2019-Jan-16 08:00N 47°36' W 052°42'2 5.6 280 / 91003.7 -2.2-1.3
2019-Jan-16 07:40N 47°34' W 052°42'0 0.0
2019-Jan-16 07:04N 47°34' W 052°42'226.0
2019-Jan-16 07:00N 47°36' W 052°42'262.4 280 / 141001.3 -1.6-0.7
2019-Jan-16 06:58N 47°34' W 052°42'0 0.0
2019-Jan-16 06:28N 47°34' W 052°42'2 3.9
2019-Jan-16 06:00N 47°36' W 052°42'2 5.6 280 / 16998.7 -1.4-0.5
2019-Jan-16 05:40N 47°34' W 052°42'0 0.0
2019-Jan-16 05:22N 47°34' W 052°42'2 5.0
2019-Jan-16 05:00N 47°36' W 052°42'263.0 280 / 12995.4 -1.1-0.1
2019-Jan-16 04:58N 47°34' W 052°42'0 0.0
2019-Jan-16 04:19N 47°34' W 052°42'2 5.7
2019-Jan-16 04:00N 47°36' W 052°42'214.1 290 / 15991.9 -0.5 0.6
2019-Jan-16 03:52N 47°34' W 052°42'2 2.1
2019-Jan-16 03:00N 47°36' W 052°42'261.8 300 / 12989.3 -0.5 0.6
2019-Jan-16 02:58N 47°34' W 052°42'0 0.0
2019-Jan-16 02:19N 47°34' W 052°42'2 5.7
2019-Jan-16 02:00N 47°36' W 052°42'261.8 290 / 8987.2 0.1 1.2
2019-Jan-16 01:58N 47°34' W 052°42'0 0.0
2019-Jan-16 01:22N 47°34' W 052°42'2 5.0
2019-Jan-16 01:00N 47°36' W 052°42'223.1 290 / 8985.7 0.8 1.9
2019-Jan-16 00:55N 47°34' W 052°42'0 0.0
2019-Jan-16 00:16N 47°34' W 052°42'2 6.8
2019-Jan-16 00:00N 47°36' W 052°42'214.2 270 / 4985.0 1.0 2.1
2019-Jan-15 23:52N 47°34' W 052°42'0 0.0
2019-Jan-15 23:28N 47°34' W 052°42'2 3.9
2019-Jan-15 23:00N 47°36' W 052°42'2 3.8 320 / 6985.5 1.9 3.0
2019-Jan-15 22:31N 47°34' W 052°42'0 0.0
2019-Jan-15 22:22N 47°34' W 052°42'2 5.0
2019-Jan-15 22:00N 47°36' W 052°42'2 2.9 010 / 4986.2 3.6 4.8
2019-Jan-15 21:22N 47°34' W 052°42'2 5.0
2019-Jan-15 21:00N 47°36' W 052°42'0 0.0 120 / 7987.7 3.7 4.9
2019-Jan-15 20:00N 47°36' W 052°42'214.1 110 / 3989.9 3.3 4.5
2019-Jan-15 19:52N 47°34' W 052°42'0 0.0
2019-Jan-15 19:22N 47°34' W 052°42'2 5.0
2019-Jan-15 19:00N 47°36' W 052°42'261.6 120 / 5991.9 2.3 3.5
2019-Jan-15 18:58N 47°34' W 052°42'0 0.0
2019-Jan-15 18:10N 47°34' W 052°42'210.8
2019-Jan-15 18:00N 47°36' W 052°42'2 8.0 100 / 8996.0 1.4 2.4
2019-Jan-15 17:46N 47°34' W 052°42'0 0.0
2019-Jan-15 17:19N 47°34' W 052°42'2 5.7
2019-Jan-15 17:00N 47°36' W 052°42'2 8.0 090 / 13999.6 0.3 1.3
2019-Jan-15 16:46N 47°34' W 052°42'0 0.0
2019-Jan-15 16:28N 47°34' W 052°42'2 3.9
2019-Jan-15 16:00N 47°36' W 052°42'261.6 080 / 101003.1 -0.5 0.4
2019-Jan-15 15:58N 47°34' W 052°42'0 0.0
2019-Jan-15 15:22N 47°34' W 052°42'2 5.0
2019-Jan-15 15:00N 47°36' W 052°42'214.1 080 / 111007.4 -1.5-0.6
2019-Jan-15 14:52N 47°34' W 052°42'2 2.1
2019-Jan-15 14:00N 47°36' W 052°42'2 5.6 100 / 141011.5 -1.9-1.1
2019-Jan-15 13:40N 47°34' W 052°42'2 2.7
2019-Jan-15 13:00N 47°36' W 052°42'0 0.0 110 / 171013.1 -2.2-1.4
2019-Jan-15 12:00N 47°36' W 052°42'2 5.6 120 / 161014.3 -1.7-1.0
2019-Jan-15 11:40N 47°34' W 052°42'2 2.7
2019-Jan-15 11:00N 47°36' W 052°42'210.2 120 / 111015.8 -1.8-1.1
2019-Jan-15 10:49N 47°34' W 052°42'2 2.2
2019-Jan-15 10:00N 47°36' W 052°42'214.1 120 / 71016.8 -2.2-1.5
2019-Jan-15 09:52N 47°34' W 052°42'0 0.0
2019-Jan-15 09:25N 47°34' W 052°42'2 4.4
2019-Jan-15 09:00N 47°36' W 052°42'223.0 120 / 71017.2 -2.0-1.3
2019-Jan-15 08:55N 47°34' W 052°42'0 0.0
2019-Jan-15 08:07N 47°34' W 052°42'215.3
2019-Jan-15 08:00N 47°36' W 052°42'223.0 200 / 11018.7 -2.8-2.1
2019-Jan-15 07:55N 47°34' W 052°42'0 0.0
2019-Jan-15 07:28N 47°34' W 052°42'2 3.9
2019-Jan-15 07:00N 47°36' W 052°42'261.6 190 / 21019.7 -3.0-2.4
2019-Jan-15 06:58N 47°34' W 052°42'0 0.0
2019-Jan-15 06:28N 47°34' W 052°42'2 3.9
2019-Jan-15 06:00N 47°36' W 052°42'261.2 1020.7 -2.7-2.1
2019-Jan-15 05:58N 47°34' W 052°42'0 0.0
2019-Jan-15 05:25N 47°34' W 052°42'2 4.4
2019-Jan-15 05:00N 47°36' W 052°42'214.2 170 / 11021.1 -2.7-2.1
2019-Jan-15 04:52N 47°34' W 052°42'0 0.0
2019-Jan-15 04:25N 47°34' W 052°42'2 4.4
2019-Jan-15 04:00N 47°36' W 052°42'261.8 220 / 41021.7 -3.1-2.5
2019-Jan-15 03:58N 47°34' W 052°42'0 0.0
2019-Jan-15 03:19N 47°34' W 052°42'2 5.7
2019-Jan-15 03:00N 47°36' W 052°42'223.0 230 / 41021.8 -3.0-2.4
2019-Jan-15 02:55N 47°34' W 052°42'0 0.0
2019-Jan-15 02:22N 47°34' W 052°42'2 5.0
2019-Jan-15 02:00N 47°36' W 052°42'223.0 190 / 31022.5 -3.1-2.5
2019-Jan-15 01:55N 47°34' W 052°42'0 0.0
2019-Jan-15 01:28N 47°34' W 052°42'2 3.9
2019-Jan-15 01:00N 47°36' W 052°42'223.0 250 / 81022.8 -3.3-2.8
2019-Jan-15 00:55N 47°34' W 052°42'0 0.0
2019-Jan-15 00:28N 47°34' W 052°42'2 3.9
2019-Jan-15 00:00N 47°36' W 052°42'261.8 250 / 71022.5 -3.6-3.0
2019-Jan-14 23:58N 47°34' W 052°42'0 0.0
2019-Jan-14 23:28N 47°34' W 052°42'2 3.9
2019-Jan-14 23:00N 47°36' W 052°42'261.2 260 / 91022.8 -4.1-3.6
2019-Jan-14 22:58N 47°34' W 052°42'0 0.0
2019-Jan-14 22:22N 47°34' W 052°42'2 4.9
2019-Jan-14 22:00N 47°36' W 052°42'261.8 210 / 41022.6 -3.9-3.3
2019-Jan-14 21:58N 47°34' W 052°42'0 0.0
2019-Jan-14 21:28N 47°34' W 052°42'2 3.9
2019-Jan-14 21:00N 47°36' W 052°42'261.2 240 / 51022.2 -3.3-2.8
2019-Jan-14 20:58N 47°34' W 052°42'0 0.0
2019-Jan-14 20:19N 47°34' W 052°42'2 5.7
2019-Jan-14 20:00N 47°36' W 052°42'262.2 240 / 71021.8 -2.6-2.0
2019-Jan-14 19:58N 47°34' W 052°42'0 0.0
2019-Jan-14 19:28N 47°34' W 052°42'2 3.9
2019-Jan-14 19:00N 47°36' W 052°42'214.2 240 / 81021.3 -1.4-0.9
2019-Jan-14 18:52N 47°34' W 052°42'0 0.0
2019-Jan-14 18:28N 47°34' W 052°42'2 3.9
2019-Jan-14 18:00N 47°36' W 052°42'2 2.5 240 / 81021.0 -1.4-0.8
2019-Jan-14 17:16N 47°34' W 052°42'2 6.8
2019-Jan-14 17:00N 47°36' W 052°42'214.2 270 / 111020.7 -1.7-1.1
2019-Jan-14 16:52N 47°34' W 052°42'2 2.1
2019-Jan-14 16:00N 47°36' W 052°42'261.2 250 / 91020.6 -2.2-1.6
2019-Jan-14 15:58N 47°34' W 052°42'0 0.0
2019-Jan-14 15:07N 47°34' W 052°42'215.3
2019-Jan-14 15:00N 47°36' W 052°42'2 2.7 240 / 101021.4 -3.4-2.8
2019-Jan-14 14:19N 47°34' W 052°42'2 5.7
2019-Jan-14 14:00N 47°36' W 052°42'261.6 260 / 131021.9 -4.1-3.6
2019-Jan-14 13:58N 47°34' W 052°42'2 1.9
2019-Jan-14 13:00N 47°36' W 052°42'2 3.2 250 / 121021.7 -4.7-4.1
2019-Jan-14 12:25N 47°34' W 052°42'2 4.4
2019-Jan-14 12:00N 47°36' W 052°42'2 2.5 240 / 81020.9 -5.0-4.5
2019-Jan-14 11:16N 47°34' W 052°42'2 6.8
2019-Jan-14 11:00N 47°36' W 052°42'0 0.0 240 / 71020.1 -5.3-4.8
2019-Jan-14 10:00N 47°36' W 052°42'214.1 250 / 121019.6 -5.1-4.5
2019-Jan-14 09:52N 47°34' W 052°42'2 2.1
2019-Jan-14 09:00N 47°36' W 052°42'2 4.3 260 / 91019.6 -4.5-4.0
2019-Jan-14 08:34N 47°34' W 052°42'2 3.2
2019-Jan-14 08:00N 47°36' W 052°42'0 0.0 250 / 71019.4 -4.0-3.5
2019-Jan-14 07:00N 47°36' W 052°42'0 0.0 260 / 111019.2 -3.7-3.2
2019-Jan-14 06:00N 47°36' W 052°42'   250 / 101019.1 -3.7-3.1
Track history (hours):
 
Tides and Currents Weather Stations Pressure Air Temp Water Temp Dewpoint Dewpoint Depression Visibility Wind Speed Wind Dir Waves Ship Positions

Oceanographic research ship CCGS Louis S. St-Laurent (Canada)

Detailed information on ship capabilities available from ARCUS's ALIAS (Arctic Logistics Information and Support) project.

Last reported at 2019-Jan-24 05:00 UTC. Time now 2019-Jan-24 06:10 UTC.
Position N 48°06' W 060°48'.

Length 119.63 m; beam 24.38 m; draft 9.9 m.

MMSI: 316165000.

Wind from 130 at 12 knots

Barometer 1019.5 mb
Air temperature -3.2 ° C
Dewpoint -2.5 ° C

Date/timePositionNaut miles runAvg speedWind from/ knotsBaromVisibWave heightAir tempDewpointWater temp
2019-Jan-24 05:00N 48°06' W 060°48'1010.0 130 / 121019.5 -3.2-2.5
2019-Jan-24 04:00N 48°00' W 060°36'1010.0 140 / 141020.8 -2.5-1.8
2019-Jan-24 03:00N 47°54' W 060°24'1010.0 140 / 131021.9 -2.2-1.4
2019-Jan-24 02:00N 47°48' W 060°12'2311.7 170 / 161022.7 -3.5-2.8
2019-Jan-24 00:00N 47°36' W 059°42'1010.1 220 / 121024.9 -3.9-3.2
2019-Jan-23 23:00N 47°30' W 059°30'1212.2 250 / 131025.3 -3.5-2.7
2019-Jan-23 22:00N 47°30' W 059°12'4 2.0 270 / 181025.4 -2.9-2.2
2019-Jan-23 20:00N 47°30' W 059°06'1414.5 280 / 251023.9 -3.3-2.5
2019-Jan-23 19:00N 47°18' W 058°54'1212.2 280 / 201022.9 -3.2-2.4
2019-Jan-23 18:00N 47°18' W 058°36'1413.6 290 / 201022.0 -2.9-2.1
2019-Jan-23 17:00N 47°12' W 058°18'1010.1 280 / 201022.6 -2.4-1.6
2019-Jan-23 16:00N 47°06' W 058°06'1413.7 280 / 211022.3 -1.5-0.7
2019-Jan-23 15:00N 47°00' W 057°48'1010.2 300 / 181021.7 -0.9-0.1
2019-Jan-23 14:00N 46°54' W 057°36'8 8.2 310 / 181021.2 -0.6 0.2
2019-Jan-23 13:00N 46°54' W 057°24'1010.2 340 / 201019.5 -0.5 0.2
2019-Jan-23 12:00N 46°48' W 057°12'1413.7 320 / 221018.0 -1.0-0.2
2019-Jan-23 11:00N 46°42' W 056°54'4 4.1 320 / 271015.8 -1.7-1.0
2019-Jan-23 10:00N 46°42' W 056°48'1413.7 310 / 291014.1 -2.4-1.7
2019-Jan-23 09:00N 46°36' W 056°30'1010.2 310 / 311012.5 -2.6-1.9
2019-Jan-23 08:00N 46°30' W 056°18'8 8.3 310 / 281011.9 -3.4-2.8
2019-Jan-23 07:00N 46°30' W 056°06'1212.4 310 / 241011.0 -3.8-3.2
2019-Jan-23 06:00N 46°30' W 055°48'8 8.3 290 / 241010.1 -4.0-3.3
2019-Jan-23 05:00N 46°30' W 055°36'1010.2 290 / 211009.2 -4.0-3.3
2019-Jan-23 04:00N 46°36' W 055°24'1010.2 290 / 281007.3 -4.2-3.4
2019-Jan-23 03:00N 46°30' W 055°12'1212.4 310 / 191006.5 -4.1-3.3
2019-Jan-23 02:00N 46°30' W 054°54'8 8.3 270 / 201006.1 -3.1-2.4
2019-Jan-23 01:00N 46°30' W 054°42'8 8.3 250 / 251005.6 -2.5-1.7
2019-Jan-23 00:00N 46°30' W 054°30'1212.4 250 / 181005.9 -2.5-1.5
2019-Jan-22 23:00N 46°30' W 054°12'1212.4 270 / 251005.1 -2.6-1.7
2019-Jan-22 22:00N 46°30' W 053°54'1212.4 240 / 131005.3 0.2 1.2
2019-Jan-22 21:00N 46°30' W 053°36'1212.4 250 / 91004.2 0.1 1.2
2019-Jan-22 20:00N 46°30' W 053°18'1212.4 240 / 91004.5 -0.1 1.0
2019-Jan-22 19:00N 46°30' W 053°00'1312.7 250 / 131003.7 0.1 1.2
2019-Jan-22 18:00N 46°42' W 052°54'6 6.0 250 / 71003.4 1.1 2.2
2019-Jan-22 17:00N 46°48' W 052°54'6 6.0 020 / 31002.2 2.5 3.7
2019-Jan-22 16:00N 46°54' W 052°54'1312.7 330 / 131002.6 0.9 2.0
2019-Jan-22 15:00N 47°06' W 052°48'7 7.3 320 / 151001.7 0.4 1.5
2019-Jan-22 14:00N 47°12' W 052°42'6 6.0 310 / 171000.3 0.8 1.9
2019-Jan-22 13:00N 47°18' W 052°42'428.8 310 / 121000.2 1.7 2.8
2019-Jan-22 12:51N 47°21' W 052°39'910.4
2019-Jan-22 12:00N 47°30' W 052°36'7 7.2 280 / 16999.3 1.0 2.1
2019-Jan-22 11:00N 47°36' W 052°42'287.6 260 / 11999.2 1.8 2.9
2019-Jan-22 10:58N 47°34' W 052°41'0 0.5
2019-Jan-22 10:20N 47°34' W 052°42'2 5.4
2019-Jan-22 10:00N 47°36' W 052°42'2 2.4 250 / 11999.9 1.7 2.8
2019-Jan-22 09:14N 47°34' W 052°42'2 7.9
2019-Jan-22 09:00N 47°36' W 052°42'0 0.0 240 / 9999.7 3.2 4.4
2019-Jan-22 08:00N 47°36' W 052°42'211.2 220 / 6999.1 5.1 6.3
2019-Jan-22 07:50N 47°34' W 052°42'0 0.0
2019-Jan-22 07:20N 47°34' W 052°42'2 5.5
2019-Jan-22 07:00N 47°36' W 052°42'211.1 120 / 3998.6 6.1 7.4
2019-Jan-22 06:50N 47°34' W 052°42'0 0.0
2019-Jan-22 06:26N 47°34' W 052°42'2 4.3
2019-Jan-22 06:00N 47°36' W 052°42'211.2 110 / 4999.4 6.4 7.7
2019-Jan-22 05:50N 47°34' W 052°42'0 0.0
2019-Jan-22 05:26N 47°34' W 052°42'2 4.3
2019-Jan-22 05:00N 47°36' W 052°42'2 2.6 240 / 8999.2 6.4 7.7
2019-Jan-22 04:17N 47°34' W 052°42'2 6.5
2019-Jan-22 04:00N 47°36' W 052°42'2115.0 240 / 10999.5 6.6 7.8
2019-Jan-22 03:59N 47°34' W 052°42'2 1.9
2019-Jan-22 03:00N 47°36' W 052°42'227.9 190 / 9998.7 8.710.1
2019-Jan-22 02:56N 47°34' W 052°42'0 0.0
2019-Jan-22 02:05N 47°34' W 052°42'222.2
2019-Jan-22 02:00N 47°36' W 052°42'2 3.3 180 / 1999.0 8.610.0
2019-Jan-22 01:26N 47°34' W 052°42'2 4.3
2019-Jan-22 01:00N 47°36' W 052°42'2 4.0 190 / 2999.3 9.110.5
2019-Jan-22 00:32N 47°34' W 052°42'2 3.5
2019-Jan-22 00:00N 47°36' W 052°42'2 4.0 180 / 31000.7 8.810.1
2019-Jan-21 23:32N 47°34' W 052°42'0 0.0
2019-Jan-21 23:26N 47°34' W 052°42'2 4.3
2019-Jan-21 23:00N 47°36' W 052°42'2 4.9 120 / 11001.9 8.710.0
2019-Jan-21 22:35N 47°34' W 052°42'0 4.2
2019-Jan-21 22:30N 47°34' W 052°42'2 4.4
2019-Jan-21 22:00N 47°36' W 052°42'211.9 220 / 111002.4 9.510.8
2019-Jan-21 21:48N 47°34' W 052°42'2 2.9
2019-Jan-21 21:00N 47°36' W 052°42'215.9 220 / 171002.6 10.311.6
2019-Jan-21 20:51N 47°34' W 052°42'0 0.0
2019-Jan-21 20:18N 47°34' W 052°42'2 7.5
2019-Jan-21 20:00N 47°36' W 052°42'215.9 220 / 141002.7 9.510.8
2019-Jan-21 19:51N 47°34' W 052°42'2 2.7
2019-Jan-21 19:00N 47°36' W 052°42'2 4.2 210 / 121003.5 10.111.5
2019-Jan-21 18:27N 47°34' W 052°42'2 5.0
2019-Jan-21 18:00N 47°36' W 052°42'0 0.0 210 / 121004.4 11.412.8
2019-Jan-21 17:00N 47°36' W 052°42'0 0.0 210 / 131005.3 11.112.5
2019-Jan-21 16:00N 47°36' W 052°42'0 0.0 210 / 121006.6 10.612.0
2019-Jan-21 15:00N 47°36' W 052°42'2 7.8 210 / 151007.5 10.912.3
2019-Jan-21 14:42N 47°34' W 052°42'0 0.0
2019-Jan-21 14:06N 47°34' W 052°42'0 0.0
2019-Jan-21 13:51N 47°34' W 052°42'0 0.0
2019-Jan-21 13:24N 47°34' W 052°42'2 5.6
2019-Jan-21 13:00N 47°36' W 052°42'252.6 200 / 101009.2 6.8 8.1
2019-Jan-21 12:57N 47°34' W 052°42'2 2.4
2019-Jan-21 12:00N 47°36' W 052°42'2 3.1 210 / 151010.1 5.2 6.4
2019-Jan-21 11:15N 47°34' W 052°42'2 8.9
2019-Jan-21 11:00N 47°36' W 052°42'211.8 220 / 131011.5 3.8 5.0
2019-Jan-21 10:48N 47°34' W 052°42'0 0.0
2019-Jan-21 10:03N 47°34' W 052°42'240.6
2019-Jan-21 10:00N 47°36' W 052°42'0 0.0 210 / 111012.6 2.8 3.9
2019-Jan-21 09:00N 47°36' W 052°42'224.4 210 / 91015.1 1.8 2.9
2019-Jan-21 08:54N 47°34' W 052°42'0 0.0
2019-Jan-21 08:03N 47°34' W 052°42'240.6
2019-Jan-21 08:00N 47°36' W 052°42'224.5 210 / 41016.6 0.9 1.9
2019-Jan-21 07:54N 47°34' W 052°42'0 0.0
2019-Jan-21 07:18N 47°34' W 052°42'2 7.5
2019-Jan-21 07:00N 47°36' W 052°42'0 0.0 210 / 31018.7 0.4 1.4
2019-Jan-21 06:00N 47°36' W 052°42'0 0.0 190 / 41020.9 0.4 1.3
2019-Jan-21 05:00N 47°36' W 052°42'0 0.0 210 / 61022.0 0.2 1.1
2019-Jan-21 04:00N 47°36' W 052°42'0 0.0 210 / 51023.7 -0.3 0.5
2019-Jan-21 03:00N 47°36' W 052°42'0 0.0 180 / 21025.6 -0.6 0.2
2019-Jan-21 02:00N 47°36' W 052°42'0 0.0 180 / 41026.9 -1.3-0.5
2019-Jan-21 01:00N 47°36' W 052°42'0 0.0 210 / 31028.2 -2.2-1.5
2019-Jan-21 00:00N 47°36' W 052°42'2 4.6 210 / 11030.1 -3.1-2.5
2019-Jan-20 23:30N 47°34' W 052°42'2 4.5
2019-Jan-20 23:00N 47°36' W 052°42'211.8 050 / 11031.6 -4.1-3.5
2019-Jan-20 22:48N 47°34' W 052°42'2 2.8
2019-Jan-20 22:00N 47°36' W 052°42'0 0.0 060 / 31031.9 -5.0-4.4
2019-Jan-20 21:00N 47°36' W 052°42'224.5 200 / 11033.0 -5.3-4.8
2019-Jan-20 20:54N 47°34' W 052°42'0 0.0
2019-Jan-20 20:06N 47°34' W 052°42'221.7
2019-Jan-20 20:00N 47°36' W 052°42'0 0.0 050 / 31032.5 -6.6-6.1
2019-Jan-20 19:00N 47°36' W 052°42'2 7.8 040 / 61032.6 -7.4-6.9
2019-Jan-20 18:42N 47°34' W 052°42'2 3.2
2019-Jan-20 18:00N 47°36' W 052°42'2 3.9 070 / 41033.9 -7.0-6.6
2019-Jan-20 17:24N 47°34' W 052°42'2 5.6
2019-Jan-20 17:00N 47°36' W 052°42'252.2 070 / 31033.5 -7.0-6.5
2019-Jan-20 16:57N 47°34' W 052°42'0 0.0
2019-Jan-20 16:30N 47°34' W 052°42'2 4.5
2019-Jan-20 16:00N 47°36' W 052°42'2 4.6 010 / 41033.3 -7.4-7.0
2019-Jan-20 15:30N 47°34' W 052°42'0 0.0
2019-Jan-20 15:00N 47°34' W 052°42'2376.0
2019-Jan-20 15:00N 47°36' W 052°42'2 4.6 050 / 41033.9 -7.8-7.4
2019-Jan-20 14:30N 47°34' W 052°42'2 4.5
2019-Jan-20 14:00N 47°36' W 052°42'2 3.3 330 / 41033.3 -7.8-7.4
2019-Jan-20 13:18N 47°34' W 052°42'2 7.5
2019-Jan-20 13:00N 47°36' W 052°42'2124.0 350 / 61032.7 -8.6-8.1
2019-Jan-20 12:58N 47°34' W 052°42'1 0.6
2019-Jan-20 12:00N 47°34' W 052°42'2116.0
2019-Jan-20 12:00N 47°36' W 052°42'2 3.1 360 / 21031.9 -8.4-7.9
2019-Jan-20 11:24N 47°34' W 052°42'2 4.4
2019-Jan-20 11:00N 47°36' W 052°42'221.8 320 / 31031.3 -8.7-8.3
2019-Jan-20 10:54N 47°34' W 052°42'0 0.0
2019-Jan-20 10:30N 47°34' W 052°42'2 3.6
2019-Jan-20 10:00N 47°36' W 052°42'2 4.2 270 / 41029.3 -8.9-8.4
2019-Jan-20 09:33N 47°34' W 052°42'2 3.2
2019-Jan-20 09:00N 47°36' W 052°42'221.8 270 / 61028.9 -9.1-8.6
2019-Jan-20 08:54N 47°34' W 052°42'0 0.0
2019-Jan-20 08:00N 47°34' W 052°42'2120.2
2019-Jan-20 08:00N 47°36' W 052°42'0 0.0 280 / 71028.6 -8.9-8.4
2019-Jan-20 07:00N 47°36' W 052°42'0 0.0 280 / 91027.7 -8.8-8.4
2019-Jan-20 06:00N 47°36' W 052°42'0 0.0 260 / 71026.4 -8.5-8.0
2019-Jan-20 05:00N 47°36' W 052°42'0 0.0 260 / 61025.5 -8.4-7.9
2019-Jan-20 04:00N 47°36' W 052°42'0 0.0 260 / 61024.8 -8.2-7.7
2019-Jan-20 03:00N 47°36' W 052°42'0 0.0 280 / 71023.7 -7.8-7.2
2019-Jan-20 02:00N 47°36' W 052°42'2 2.0 280 / 61022.3 -6.9-6.3
2019-Jan-20 01:03N 47°34' W 052°42'227.9
2019-Jan-20 01:00N 47°36' W 052°42'0 0.0 270 / 71020.4 -6.0-5.4
2019-Jan-20 00:00N 47°36' W 052°42'0 0.0 270 / 61018.8 -4.4-3.7
2019-Jan-19 23:00N 47°36' W 052°42'0 0.0 280 / 71017.3 -3.1-2.4
2019-Jan-19 22:00N 47°36' W 052°42'0 0.0 280 / 71015.2 -1.6-0.8
2019-Jan-19 21:00N 47°36' W 052°42'2 2.5 270 / 111013.4 0.1 1.0
2019-Jan-19 20:15N 47°34' W 052°42'2 6.9
2019-Jan-19 20:00N 47°36' W 052°42'253.8 270 / 71011.5 1.1 2.1
2019-Jan-19 19:57N 47°34' W 052°42'2 1.9
2019-Jan-19 19:00N 47°36' W 052°42'0 0.0 260 / 71010.1 1.8 2.9
2019-Jan-19 18:00N 47°36' W 052°42'2 4.2 260 / 101009.0 1.8 2.9
2019-Jan-19 17:33N 47°34' W 052°42'0 0.0
2019-Jan-19 17:27N 47°34' W 052°42'2 3.9
2019-Jan-19 17:00N 47°36' W 052°42'253.3 1008.7 0.8 1.9
2019-Jan-19 16:57N 47°34' W 052°42'2 1.9
2019-Jan-19 16:00N 47°36' W 052°42'2 7.8 110 / 51009.8 0.5 1.5
2019-Jan-19 15:45N 47°34' W 052°42'0 0.0
2019-Jan-19 15:27N 47°34' W 052°42'2 3.9
2019-Jan-19 15:00N 47°36' W 052°42'253.8 110 / 51011.9 0.1 1.1
2019-Jan-19 14:57N 47°34' W 052°42'0 0.0
2019-Jan-19 14:15N 47°34' W 052°42'2 6.9
2019-Jan-19 14:00N 47°36' W 052°42'2 2.3 120 / 51013.3 -0.2 0.8
2019-Jan-19 13:12N 47°34' W 052°42'2 8.5
2019-Jan-19 13:00N 47°36' W 052°42'0 0.0 120 / 131014.9 -1.5-0.6
2019-Jan-19 12:00N 47°36' W 052°42'213.6 120 / 61015.9 -1.6-0.7
2019-Jan-19 11:51N 47°34' W 052°42'2 2.1
2019-Jan-19 11:00N 47°36' W 052°42'2 5.5 120 / 71018.0 -2.4-1.6
2019-Jan-19 10:39N 47°34' W 052°42'2 2.7
2019-Jan-19 10:00N 47°36' W 052°42'2 3.1 120 / 41019.9 -2.7-1.9
2019-Jan-19 09:24N 47°34' W 052°42'2 4.4
2019-Jan-19 09:00N 47°36' W 052°42'2 7.8 120 / 41021.3 -2.9-2.2
2019-Jan-19 08:45N 47°34' W 052°42'0 0.0
2019-Jan-19 08:21N 47°34' W 052°42'0 0.0
2019-Jan-19 08:00N 47°34' W 052°42'2118.1
2019-Jan-19 08:00N 47°36' W 052°42'2 3.8 120 / 31022.4 -2.5-1.9
2019-Jan-19 07:30N 47°34' W 052°42'2 3.6
2019-Jan-19 07:00N 47°36' W 052°42'210.0 170 / 11024.4 -2.6-2.1
2019-Jan-19 06:48N 47°34' W 052°42'0 0.0
2019-Jan-19 06:12N 47°34' W 052°42'2 8.5
2019-Jan-19 06:00N 47°36' W 052°42'2 5.5 160 / 11025.3 -2.9-2.4
2019-Jan-19 05:39N 47°34' W 052°42'0 0.0
2019-Jan-19 05:27N 47°34' W 052°42'0 0.0
2019-Jan-19 05:00N 47°34' W 052°42'2114.0
2019-Jan-19 05:00N 47°36' W 052°42'2 1.9 180 / 11025.9 -3.6-3.0
2019-Jan-19 04:00N 47°34' W 052°42'2116.0
2019-Jan-19 04:00N 47°36' W 052°42'2 3.8 170 / 11027.5 -3.8-3.2
2019-Jan-19 03:30N 47°34' W 052°42'0 0.0
2019-Jan-19 02:00N 47°34' W 052°42'2116.1
2019-Jan-19 02:00N 47°36' W 052°42'2 2.3 180 / 21029.1 -4.1-3.6
2019-Jan-19 01:12N 47°34' W 052°42'2 8.5
2019-Jan-19 01:00N 47°36' W 052°42'213.7 190 / 31029.9 -4.4-4.0
2019-Jan-19 00:51N 47°34' W 052°42'0 0.0
2019-Jan-19 00:27N 47°34' W 052°42'2 3.9
2019-Jan-19 00:00N 47°36' W 052°42'254.2 200 / 11030.1 -4.6-4.1
2019-Jan-18 23:57N 47°34' W 052°42'2 1.9
2019-Jan-18 23:00N 47°36' W 052°42'253.8 190 / 21030.2 -4.7-4.3
2019-Jan-18 22:57N 47°34' W 052°42'0 0.0
2019-Jan-18 22:27N 47°34' W 052°42'0 0.0
2019-Jan-18 22:00N 47°34' W 052°42'2116.0
2019-Jan-18 22:00N 47°36' W 052°42'2 2.7 1030.2 -4.9-4.4
2019-Jan-18 21:18N 47°34' W 052°42'0 0.0
2019-Jan-18 21:00N 47°34' W 052°42'2114.0
2019-Jan-18 21:00N 47°36' W 052°42'2 2.9 200 / 11030.3 -5.4-4.9
2019-Jan-18 20:21N 47°34' W 052°42'2 5.0
2019-Jan-18 20:00N 47°36' W 052°42'254.2 1030.0 -5.0-4.5
2019-Jan-18 19:57N 47°34' W 052°42'0 0.0
2019-Jan-18 19:27N 47°34' W 052°42'0 0.0
2019-Jan-18 19:00N 47°34' W 052°42'2114.0
2019-Jan-18 19:00N 47°36' W 052°42'2 2.9 240 / 41029.6 -5.1-4.7
2019-Jan-18 18:21N 47°34' W 052°42'2 5.0
2019-Jan-18 18:00N 47°36' W 052°42'254.2 260 / 91029.2 -5.9-5.5
2019-Jan-18 17:57N 47°34' W 052°42'0 0.0
2019-Jan-18 17:27N 47°34' W 052°42'0 0.0
2019-Jan-18 17:00N 47°34' W 052°42'2114.0
2019-Jan-18 17:00N 47°36' W 052°42'0 0.0 250 / 101029.4 -6.0-5.5
2019-Jan-18 16:00N 47°36' W 052°42'2 4.8 270 / 111029.6 -6.3-5.9
2019-Jan-18 15:36N 47°34' W 052°42'0 0.0
2019-Jan-18 15:00N 47°34' W 052°42'2113.7
2019-Jan-18 15:00N 47°36' W 052°42'2 3.8 260 / 91029.8 -7.1-6.7
2019-Jan-18 14:30N 47°34' W 052°42'2 3.6
2019-Jan-18 14:00N 47°36' W 052°42'253.8 290 / 71029.8 -7.6-7.2
2019-Jan-18 13:57N 47°34' W 052°42'2 1.9
2019-Jan-18 13:00N 47°36' W 052°42'0 0.0 280 / 61029.0 -8.3-8.0
2019-Jan-18 12:00N 47°36' W 052°42'213.7 270 / 81027.5 -8.9-8.6
2019-Jan-18 11:51N 47°34' W 052°42'2 2.1
2019-Jan-18 11:00N 47°36' W 052°42'0 0.0 270 / 71026.4 -9.3-9.0
2019-Jan-18 10:00N 47°36' W 052°42'0 0.0 280 / 81025.4 -9.2-8.9
2019-Jan-18 09:00N 47°36' W 052°42'2 7.8 270 / 81024.4 -9.1-8.8
2019-Jan-18 08:45N 47°34' W 052°42'0 0.0
2019-Jan-18 08:24N 47°34' W 052°42'2 4.4
2019-Jan-18 08:00N 47°36' W 052°42'2 3.4 280 / 81023.5 -8.8-8.4
2019-Jan-18 07:27N 47°34' W 052°42'2 3.9
2019-Jan-18 07:00N 47°36' W 052°42'0 0.0 260 / 91022.5 -8.5-8.1
2019-Jan-18 06:00N 47°36' W 052°42'0 0.0 260 / 111021.4 -8.1-7.7
2019-Jan-18 05:00N 47°36' W 052°42'0 0.0 270 / 111019.9 -7.6-7.3
2019-Jan-18 04:00N 47°36' W 052°42'0 0.0 260 / 111019.3 -7.4-7.0
2019-Jan-18 03:00N 47°36' W 052°42'0 0.0 270 / 111019.1 -7.1-6.7
2019-Jan-18 02:00N 47°36' W 052°42'0 0.0 270 / 101017.4 -6.3-5.8
2019-Jan-18 01:00N 47°36' W 052°42'0 0.0 270 / 81016.2 -5.2-4.6
2019-Jan-18 00:00N 47°36' W 052°42'0 0.0 260 / 81015.1 -4.7-4.2
2019-Jan-17 23:00N 47°36' W 052°42'0 0.0 260 / 121014.4 -4.3-3.7
2019-Jan-17 22:00N 47°36' W 052°42'0 0.0 260 / 131013.2 -3.7-3.1
2019-Jan-17 21:00N 47°36' W 052°42'0 0.0 250 / 131012.2 -2.7-2.1
2019-Jan-17 20:00N 47°36' W 052°42'0 0.0 250 / 111011.2 -1.1-0.4
2019-Jan-17 19:00N 47°36' W 052°42'2 2.9 240 / 101010.1 0.6 1.4
2019-Jan-17 18:21N 47°34' W 052°42'2 5.0
2019-Jan-17 18:00N 47°36' W 052°42'210.0 240 / 121008.6 1.4 2.3
2019-Jan-17 17:48N 47°34' W 052°42'2 2.3
2019-Jan-17 17:00N 47°36' W 052°42'2 7.4 180 / 61008.0 2.6 3.6
2019-Jan-17 16:45N 47°34' W 052°42'2 2.4
2019-Jan-17 16:00N 47°36' W 052°42'0 0.0 180 / 11008.8 2.3 3.4
2019-Jan-17 15:00N 47°36' W 052°42'0 0.0 170 / 11010.3 1.9 2.9
2019-Jan-17 14:00N 47°36' W 052°42'0 0.0 180 / 11011.6 1.5 2.5
2019-Jan-17 13:00N 47°36' W 052°42'0 0.0 190 / 21012.4 1.2 2.2
2019-Jan-17 12:00N 47°36' W 052°42'0 0.0 010 / 11012.8 0.5 1.4
2019-Jan-17 11:00N 47°36' W 052°42'0 0.0 120 / 41014.1 -0.6 0.3
2019-Jan-17 10:00N 47°36' W 052°42'0 0.0 1015.1 -0.5 0.4
2019-Jan-17 09:00N 47°36' W 052°42'0 0.0 180 / 11015.5 -1.0-0.1
2019-Jan-17 08:00N 47°36' W 052°42'0 0.0 140 / 11016.2 -1.2-0.4
2019-Jan-17 07:00N 47°36' W 052°42'0 0.0 1016.8 -1.4-0.5
2019-Jan-17 06:00N 47°36' W 052°42'0 0.0 1017.5 -1.7-0.9
2019-Jan-17 05:00N 47°36' W 052°42'2 8.0 200 / 61017.7 -2.1-1.3
2019-Jan-17 04:46N 47°34' W 052°42'2 2.4
2019-Jan-17 04:00N 47°36' W 052°42'0 0.0 190 / 21017.9 -1.8-1.0
2019-Jan-17 03:00N 47°36' W 052°42'0 0.0 1018.7 -2.0-1.2
2019-Jan-17 02:00N 47°36' W 052°42'0 0.0 190 / 11019.1 -2.5-1.7
2019-Jan-17 01:00N 47°36' W 052°42'0 0.0 190 / 21019.3 -3.1-2.3
2019-Jan-17 00:00N 47°36' W 052°42'0 0.0 1019.0 -2.9-2.2
2019-Jan-16 23:00N 47°36' W 052°42'0 0.0 190 / 11019.2 -3.5-2.7
2019-Jan-16 22:00N 47°36' W 052°42'0 0.0 1018.8 -3.5-2.8
2019-Jan-16 21:00N 47°36' W 052°42'0 0.0 210 / 21019.2 -4.0-3.3
2019-Jan-16 20:00N 47°36' W 052°42'0 0.0 250 / 61019.0 -4.2-3.5
2019-Jan-16 19:00N 47°36' W 052°42'0 0.0 250 / 41018.5 -4.2-3.4
2019-Jan-16 18:00N 47°36' W 052°42'0 0.0 190 / 31017.9 -4.1-3.3
2019-Jan-16 17:00N 47°36' W 052°42'0 0.0 270 / 41017.4 -4.6-3.9
2019-Jan-16 15:00N 47°36' W 052°42'0 0.0 270 / 61016.8 -4.5-3.8
2019-Jan-16 14:00N 47°36' W 052°42'0 0.0 270 / 71016.2 -4.3-3.5
2019-Jan-16 13:00N 47°36' W 052°42'262.2 290 / 91014.9 -4.1-3.3
2019-Jan-16 12:58N 47°34' W 052°42'2 1.9
2019-Jan-16 12:00N 47°36' W 052°42'0 0.0 280 / 61013.0 -4.1-3.3
2019-Jan-16 11:00N 47°36' W 052°42'0 0.0 280 / 81011.0 -3.7-2.9
2019-Jan-16 10:00N 47°36' W 052°42'2 2.9 280 / 81009.3 -3.2-2.4
2019-Jan-16 09:22N 47°34' W 052°42'2 5.0
2019-Jan-16 09:00N 47°36' W 052°42'0 0.0 280 / 91006.4 -2.8-1.9
2019-Jan-16 08:00N 47°36' W 052°42'2 5.6 280 / 91003.7 -2.2-1.3
2019-Jan-16 07:40N 47°34' W 052°42'0 0.0
2019-Jan-16 07:04N 47°34' W 052°42'226.0
2019-Jan-16 07:00N 47°36' W 052°42'262.4 280 / 141001.3 -1.6-0.7
2019-Jan-16 06:58N 47°34' W 052°42'0 0.0
2019-Jan-16 06:28N 47°34' W 052°42'2 3.9
2019-Jan-16 06:00N 47°36' W 052°42'2 5.6 280 / 16998.7 -1.4-0.5
2019-Jan-16 05:40N 47°34' W 052°42'0 0.0
2019-Jan-16 05:22N 47°34' W 052°42'2 5.0
2019-Jan-16 05:00N 47°36' W 052°42'263.0 280 / 12995.4 -1.1-0.1
2019-Jan-16 04:58N 47°34' W 052°42'0 0.0
2019-Jan-16 04:19N 47°34' W 052°42'2 5.7
2019-Jan-16 04:00N 47°36' W 052°42'214.1 290 / 15991.9 -0.5 0.6
2019-Jan-16 03:52N 47°34' W 052°42'2 2.1
2019-Jan-16 03:00N 47°36' W 052°42'261.8 300 / 12989.3 -0.5 0.6
2019-Jan-16 02:58N 47°34' W 052°42'0 0.0
2019-Jan-16 02:19N 47°34' W 052°42'2 5.7
2019-Jan-16 02:00N 47°36' W 052°42'261.8 290 / 8987.2 0.1 1.2
2019-Jan-16 01:58N 47°34' W 052°42'0 0.0
2019-Jan-16 01:22N 47°34' W 052°42'2 5.0
2019-Jan-16 01:00N 47°36' W 052°42'223.1 290 / 8985.7 0.8 1.9
2019-Jan-16 00:55N 47°34' W 052°42'0 0.0
2019-Jan-16 00:16N 47°34' W 052°42'2 6.8
2019-Jan-16 00:00N 47°36' W 052°42'214.2 270 / 4985.0 1.0 2.1
2019-Jan-15 23:52N 47°34' W 052°42'0 0.0
2019-Jan-15 23:28N 47°34' W 052°42'2 3.9
2019-Jan-15 23:00N 47°36' W 052°42'2 3.8 320 / 6985.5 1.9 3.0
2019-Jan-15 22:31N 47°34' W 052°42'0 0.0
2019-Jan-15 22:22N 47°34' W 052°42'2 5.0
2019-Jan-15 22:00N 47°36' W 052°42'2 2.9 010 / 4986.2 3.6 4.8
2019-Jan-15 21:22N 47°34' W 052°42'2 5.0
2019-Jan-15 21:00N 47°36' W 052°42'0 0.0 120 / 7987.7 3.7 4.9
2019-Jan-15 20:00N 47°36' W 052°42'214.1 110 / 3989.9 3.3 4.5
2019-Jan-15 19:52N 47°34' W 052°42'0 0.0
2019-Jan-15 19:22N 47°34' W 052°42'2 5.0
2019-Jan-15 19:00N 47°36' W 052°42'261.6 120 / 5991.9 2.3 3.5
2019-Jan-15 18:58N 47°34' W 052°42'0 0.0
2019-Jan-15 18:10N 47°34' W 052°42'210.8
2019-Jan-15 18:00N 47°36' W 052°42'2 8.0 100 / 8996.0 1.4 2.4
2019-Jan-15 17:46N 47°34' W 052°42'0 0.0
2019-Jan-15 17:19N 47°34' W 052°42'2 5.7
2019-Jan-15 17:00N 47°36' W 052°42'2 8.0 090 / 13999.6 0.3 1.3
2019-Jan-15 16:46N 47°34' W 052°42'0 0.0
2019-Jan-15 16:28N 47°34' W 052°42'2 3.9
2019-Jan-15 16:00N 47°36' W 052°42'261.6 080 / 101003.1 -0.5 0.4
2019-Jan-15 15:58N 47°34' W 052°42'0 0.0
2019-Jan-15 15:22N 47°34' W 052°42'2 5.0
2019-Jan-15 15:00N 47°36' W 052°42'214.1 080 / 111007.4 -1.5-0.6
2019-Jan-15 14:52N 47°34' W 052°42'2 2.1
2019-Jan-15 14:00N 47°36' W 052°42'2 5.6 100 / 141011.5 -1.9-1.1
2019-Jan-15 13:40N 47°34' W 052°42'2 2.7
2019-Jan-15 13:00N 47°36' W 052°42'0 0.0 110 / 171013.1 -2.2-1.4
2019-Jan-15 12:00N 47°36' W 052°42'2 5.6 120 / 161014.3 -1.7-1.0
2019-Jan-15 11:40N 47°34' W 052°42'2 2.7
2019-Jan-15 11:00N 47°36' W 052°42'210.2 120 / 111015.8 -1.8-1.1
2019-Jan-15 10:49N 47°34' W 052°42'2 2.2
2019-Jan-15 10:00N 47°36' W 052°42'214.1 120 / 71016.8 -2.2-1.5
2019-Jan-15 09:52N 47°34' W 052°42'0 0.0
2019-Jan-15 09:25N 47°34' W 052°42'2 4.4
2019-Jan-15 09:00N 47°36' W 052°42'223.0 120 / 71017.2 -2.0-1.3
2019-Jan-15 08:55N 47°34' W 052°42'0 0.0
2019-Jan-15 08:07N 47°34' W 052°42'215.3
2019-Jan-15 08:00N 47°36' W 052°42'223.0 200 / 11018.7 -2.8-2.1
2019-Jan-15 07:55N 47°34' W 052°42'0 0.0
2019-Jan-15 07:28N 47°34' W 052°42'2 3.9
2019-Jan-15 07:00N 47°36' W 052°42'261.6 190 / 21019.7 -3.0-2.4
2019-Jan-15 06:58N 47°34' W 052°42'0 0.0
2019-Jan-15 06:28N 47°34' W 052°42'2 3.9
2019-Jan-15 06:00N 47°36' W 052°42'261.2 1020.7 -2.7-2.1
2019-Jan-15 05:58N 47°34' W 052°42'0 0.0
2019-Jan-15 05:25N 47°34' W 052°42'2 4.4
2019-Jan-15 05:00N 47°36' W 052°42'214.2 170 / 11021.1 -2.7-2.1
2019-Jan-15 04:52N 47°34' W 052°42'0 0.0
2019-Jan-15 04:25N 47°34' W 052°42'2 4.4
2019-Jan-15 04:00N 47°36' W 052°42'261.8 220 / 41021.7 -3.1-2.5
2019-Jan-15 03:58N 47°34' W 052°42'0 0.0
2019-Jan-15 03:19N 47°34' W 052°42'2 5.7
2019-Jan-15 03:00N 47°36' W 052°42'223.0 230 / 41021.8 -3.0-2.4
2019-Jan-15 02:55N 47°34' W 052°42'0 0.0
2019-Jan-15 02:22N 47°34' W 052°42'2 5.0
2019-Jan-15 02:00N 47°36' W 052°42'223.0 190 / 31022.5 -3.1-2.5
2019-Jan-15 01:55N 47°34' W 052°42'0 0.0
2019-Jan-15 01:28N 47°34' W 052°42'2 3.9
2019-Jan-15 01:00N 47°36' W 052°42'223.0 250 / 81022.8 -3.3-2.8
2019-Jan-15 00:55N 47°34' W 052°42'0 0.0
2019-Jan-15 00:28N 47°34' W 052°42'2 3.9
2019-Jan-15 00:00N 47°36' W 052°42'261.8 250 / 71022.5 -3.6-3.0
2019-Jan-14 23:58N 47°34' W 052°42'0 0.0
2019-Jan-14 23:28N 47°34' W 052°42'2 3.9
2019-Jan-14 23:00N 47°36' W 052°42'261.2 260 / 91022.8 -4.1-3.6
2019-Jan-14 22:58N 47°34' W 052°42'0 0.0
2019-Jan-14 22:22N 47°34' W 052°42'2 4.9
2019-Jan-14 22:00N 47°36' W 052°42'261.8 210 / 41022.6 -3.9-3.3
2019-Jan-14 21:58N 47°34' W 052°42'0 0.0
2019-Jan-14 21:28N 47°34' W 052°42'2 3.9
2019-Jan-14 21:00N 47°36' W 052°42'261.2 240 / 51022.2 -3.3-2.8
2019-Jan-14 20:58N 47°34' W 052°42'0 0.0
2019-Jan-14 20:19N 47°34' W 052°42'2 5.7
2019-Jan-14 20:00N 47°36' W 052°42'262.2 240 / 71021.8 -2.6-2.0
2019-Jan-14 19:58N 47°34' W 052°42'0 0.0
2019-Jan-14 19:28N 47°34' W 052°42'2 3.9
2019-Jan-14 19:00N 47°36' W 052°42'214.2 240 / 81021.3 -1.4-0.9
2019-Jan-14 18:52N 47°34' W 052°42'0 0.0
2019-Jan-14 18:28N 47°34' W 052°42'2 3.9
2019-Jan-14 18:00N 47°36' W 052°42'2 2.5 240 / 81021.0 -1.4-0.8
2019-Jan-14 17:16N 47°34' W 052°42'2 6.8
2019-Jan-14 17:00N 47°36' W 052°42'214.2 270 / 111020.7 -1.7-1.1
2019-Jan-14 16:52N 47°34' W 052°42'2 2.1
2019-Jan-14 16:00N 47°36' W 052°42'261.2 250 / 91020.6 -2.2-1.6
2019-Jan-14 15:58N 47°34' W 052°42'0 0.0
2019-Jan-14 15:07N 47°34' W 052°42'215.3
2019-Jan-14 15:00N 47°36' W 052°42'2 2.7 240 / 101021.4 -3.4-2.8
2019-Jan-14 14:19N 47°34' W 052°42'2 5.7
2019-Jan-14 14:00N 47°36' W 052°42'261.6 260 / 131021.9 -4.1-3.6
2019-Jan-14 13:58N 47°34' W 052°42'2 1.9
2019-Jan-14 13:00N 47°36' W 052°42'2 3.2 250 / 121021.7 -4.7-4.1
2019-Jan-14 12:25N 47°34' W 052°42'2 4.4
2019-Jan-14 12:00N 47°36' W 052°42'2 2.5 240 / 81020.9 -5.0-4.5
2019-Jan-14 11:16N 47°34' W 052°42'2 6.8
2019-Jan-14 11:00N 47°36' W 052°42'0 0.0 240 / 71020.1 -5.3-4.8
2019-Jan-14 10:00N 47°36' W 052°42'214.1 250 / 121019.6 -5.1-4.5
2019-Jan-14 09:52N 47°34' W 052°42'2 2.1
2019-Jan-14 09:00N 47°36' W 052°42'2 4.3 260 / 91019.6 -4.5-4.0
2019-Jan-14 08:34N 47°34' W 052°42'2 3.2
2019-Jan-14 08:00N 47°36' W 052°42'0 0.0 250 / 71019.4 -4.0-3.5
2019-Jan-14 07:00N 47°36' W 052°42'0 0.0 260 / 111019.2 -3.7-3.2
2019-Jan-14 06:00N 47°36' W 052°42'   250 / 101019.1 -3.7-3.1

Dump ship's entire track history